Terminal Aerodrome Forecast
Issued by NWS Wakefield, VA

Home | Current Version | Previous Version | Text Only | Print | Product List | Glossary On
Versions: 1 2 3 4 5 6 7 8 9 10 11 12 13 14
000
FTUS41 KAKQ 271120
TAFSBY
TAF
KSBY 271120Z 2712/2812 18004KT P6SM BKN090
     FM271500 30005KT P6SM BKN050
     FM271900 27007KT P6SM BKN060
     FM280200 VRB03KT P6SM SCT200=

USA.gov is the U.S. government's official web portal to all federal, state and local government web resources and services.